Aurora Center, South Dakota
Current Conditions -  °F | °C
As of 12:53 AM on Wednesday 22 Oct 2014 (Local Time) from KMHE Reporting Station
Clear Clear  
Wind Chill: 60°   Ceiling: Unl
Heat Index: 60°   Visibility: 10mi
Dew Point: 40°   Wind: 20mph
Humidity: 47%   Direction: 150°SSE
Pressure: 29.92"   Gusts: NA
Location:  43.5853°N, 98.5581°W
Report Text: KMHE 220553Z AUTO 15017KT 10SM CLR 16/04 A2992 RMK AO2 SLP126 T01560044 10206 20156 402720061 58006 $
Loading
Personal Weather Stations






























Interactive Weather Map
Tropical Storm Tracking
New forecast layout! Learn more

10-Day Weather Forecast

Advertisements
Track Severe Weather on mobile